sensor_id;sensor_type;location;lat;lon;timestamp;pressure;altitude;pressure_sealevel;temperature;humidity
56241;BME280;42155;53.096;23.226;2023-01-08T00:01:16;100455.03;;;-0.23;80.50
56241;BME280;42155;53.096;23.226;2023-01-08T00:03:16;100449.97;;;-0.29;80.12
56241;BME280;42155;53.096;23.226;2023-01-08T00:05:17;100443.78;;;-0.25;80.62
56241;BME280;42155;53.096;23.226;2023-01-08T00:07:17;100453.31;;;-0.24;80.79
56241;BME280;42155;53.096;23.226;2023-01-08T00:09:17;100411.97;;;-0.38;80.69
56241;BME280;42155;53.096;23.226;2023-01-08T00:11:18;100431.69;;;-0.28;80.41
56241;BME280;42155;53.096;23.226;2023-01-08T00:13:18;100443.72;;;-0.23;80.36
56241;BME280;42155;53.096;23.226;2023-01-08T00:15:18;100442.88;;;-0.24;80.47
56241;BME280;42155;53.096;23.226;2023-01-08T00:17:19;100444.59;;;-0.23;80.44
56241;BME280;42155;53.096;23.226;2023-01-08T00:19:19;100442.97;;;-0.27;80.76
56241;BME280;42155;53.096;23.226;2023-01-08T00:21:19;100448.19;;;-0.27;80.94
56241;BME280;42155;53.096;23.226;2023-01-08T00:23:20;100432.63;;;-0.30;80.84
56241;BME280;42155;53.096;23.226;2023-01-08T00:25:20;100438.56;;;-0.25;80.81
56241;BME280;42155;53.096;23.226;2023-01-08T00:27:20;100438.56;;;-0.25;80.29
56241;BME280;42155;53.096;23.226;2023-01-08T00:29:21;100439.38;;;-0.23;80.40
56241;BME280;42155;53.096;23.226;2023-01-08T00:31:21;100425.72;;;-0.31;80.58
56241;BME280;42155;53.096;23.226;2023-01-08T00:33:21;100437.53;;;-0.19;80.39
56241;BME280;42155;53.096;23.226;2023-01-08T00:35:22;100398.06;;;-0.37;80.72
56241;BME280;42155;53.096;23.226;2023-01-08T00:37:22;100430.59;;;-0.20;80.37
56241;BME280;42155;53.096;23.226;2023-01-08T00:39:22;100422.00;;;-0.24;80.54
56241;BME280;42155;53.096;23.226;2023-01-08T00:41:23;100400.59;;;-0.35;80.72
56241;BME280;42155;53.096;23.226;2023-01-08T00:43:23;100393.06;;;-0.44;80.32
56241;BME280;42155;53.096;23.226;2023-01-08T00:45:23;100421.94;;;-0.21;80.65
56241;BME280;42155;53.096;23.226;2023-01-08T00:47:24;100420.31;;;-0.25;80.65
56241;BME280;42155;53.096;23.226;2023-01-08T00:49:24;100416.91;;;-0.27;81.09
56241;BME280;42155;53.096;23.226;2023-01-08T00:51:24;100418.53;;;-0.24;80.78
56241;BME280;42155;53.096;23.226;2023-01-08T00:53:25;100412.69;;;-0.33;80.29
56241;BME280;42155;53.096;23.226;2023-01-08T00:55:25;100421.13;;;-0.23;80.35
56241;BME280;42155;53.096;23.226;2023-01-08T00:57:25;100409.16;;;-0.30;80.38
56241;BME280;42155;53.096;23.226;2023-01-08T00:59:26;100400.59;;;-0.35;80.62
56241;BME280;42155;53.096;23.226;2023-01-08T01:01:26;100366.34;;;-0.53;80.64
56241;BME280;42155;53.096;23.226;2023-01-08T01:03:27;100379.25;;;-0.48;80.63
56241;BME280;42155;53.096;23.226;2023-01-08T01:05:27;100401.41;;;-0.33;80.79
56241;BME280;42155;53.096;23.226;2023-01-08T01:07:27;100372.28;;;-0.47;80.90
56241;BME280;42155;53.096;23.226;2023-01-08T01:09:28;100402.09;;;-0.27;80.77
56241;BME280;42155;53.096;23.226;2023-01-08T01:11:28;100403.03;;;-0.29;81.09
56241;BME280;42155;53.096;23.226;2023-01-08T01:13:28;100399.53;;;-0.28;81.19
56241;BME280;42155;53.096;23.226;2023-01-08T01:15:29;100382.28;;;-0.32;80.78
56241;BME280;42155;53.096;23.226;2023-01-08T01:17:29;100396.91;;;-0.28;81.22
56241;BME280;42155;53.096;23.226;2023-01-08T01:19:30;100396.88;;;-0.27;80.70
56241;BME280;42155;53.096;23.226;2023-01-08T01:21:30;100393.44;;;-0.29;80.63
56241;BME280;42155;53.096;23.226;2023-01-08T01:23:31;100342.22;;;-0.59;80.97
56241;BME280;42155;53.096;23.226;2023-01-08T01:25:36;100370.13;;;-0.33;80.98
56241;BME280;42155;53.096;23.226;2023-01-08T01:27:36;100373.63;;;-0.34;81.32
56241;BME280;42155;53.096;23.226;2023-01-08T01:29:37;100378.75;;;-0.31;80.93
56241;BME280;42155;53.096;23.226;2023-01-08T01:31:37;100365.94;;;-0.39;81.33
56241;BME280;42155;53.096;23.226;2023-01-08T01:33:38;100354.75;;;-0.42;81.02
56241;BME280;42155;53.096;23.226;2023-01-08T01:35:39;100376.03;;;-0.28;81.35
56241;BME280;42155;53.096;23.226;2023-01-08T01:37:39;100344.41;;;-0.45;81.60
56241;BME280;42155;53.096;23.226;2023-01-08T01:39:40;100378.44;;;-0.20;80.96
56241;BME280;42155;53.096;23.226;2023-01-08T01:41:43;100378.50;;;-0.22;81.45
56241;BME280;42155;53.096;23.226;2023-01-08T01:43:44;100345.03;;;-0.37;81.26
56241;BME280;42155;53.096;23.226;2023-01-08T01:45:44;100356.00;;;-0.26;81.37
56241;BME280;42155;53.096;23.226;2023-01-08T01:47:54;100370.53;;;-0.17;81.01
56241;BME280;42155;53.096;23.226;2023-01-08T01:52:04;100360.88;;;-0.14;81.05
56241;BME280;42155;53.096;23.226;2023-01-08T01:54:08;100366.09;;;-0.14;80.94
56241;BME280;42155;53.096;23.226;2023-01-08T01:56:10;100365.06;;;-0.10;80.85
56241;BME280;42155;53.096;23.226;2023-01-08T01:58:11;100355.53;;;-0.11;80.53
56241;BME280;42155;53.096;23.226;2023-01-08T02:00:12;100357.25;;;-0.10;80.99
56241;BME280;42155;53.096;23.226;2023-01-08T02:02:13;100349.47;;;-0.11;81.14
56241;BME280;42155;53.096;23.226;2023-01-08T02:04:13;100350.31;;;-0.11;80.61
56241;BME280;42155;53.096;23.226;2023-01-08T02:12:57;100333.81;;;-0.11;81.39
56241;BME280;42155;53.096;23.226;2023-01-08T02:15:23;100336.38;;;-0.10;81.29
56241;BME280;42155;53.096;23.226;2023-01-08T02:19:48;100289.13;;;-0.29;80.94
56241;BME280;42155;53.096;23.226;2023-01-08T02:22:11;100329.28;;;-0.05;80.82
56241;BME280;42155;53.096;23.226;2023-01-08T02:24:32;100349.13;;;-0.01;81.29
56241;BME280;42155;53.096;23.226;2023-01-08T02:26:40;100355.97;;;0.04;80.93
56241;BME280;42155;53.096;23.226;2023-01-08T02:28:48;100343.69;;;0.07;81.20
56241;BME280;42155;53.096;23.226;2023-01-08T02:30:51;100356.59;;;0.12;81.16
56241;BME280;42155;53.096;23.226;2023-01-08T02:32:52;100351.28;;;0.15;80.81
56241;BME280;42155;53.096;23.226;2023-01-08T02:34:53;100345.16;;;0.16;80.99
56241;BME280;42155;53.096;23.226;2023-01-08T02:36:55;100305.75;;;-0.03;80.46
56241;BME280;42155;53.096;23.226;2023-01-08T02:41:10;100339.78;;;0.20;81.03
56241;BME280;42155;53.096;23.226;2023-01-08T02:43:17;100327.59;;;0.21;80.47
56241;BME280;42155;53.096;23.226;2023-01-08T02:45:43;100332.03;;;0.19;80.45
56241;BME280;42155;53.096;23.226;2023-01-08T02:47:54;100323.44;;;0.15;81.01
56241;BME280;42155;53.096;23.226;2023-01-08T02:52:04;100337.34;;;0.16;80.96
56241;BME280;42155;53.096;23.226;2023-01-08T02:54:08;100342.50;;;0.17;81.01
56241;BME280;42155;53.096;23.226;2023-01-08T02:56:13;100291.03;;;-0.06;80.89
56241;BME280;42155;53.096;23.226;2023-01-08T02:58:14;100334.56;;;0.20;80.57
56241;BME280;42155;53.096;23.226;2023-01-08T03:00:15;100336.28;;;0.21;80.77
56241;BME280;42155;53.096;23.226;2023-01-08T03:02:16;100338.81;;;0.23;80.68
56241;BME280;42155;53.096;23.226;2023-01-08T03:04:19;100339.72;;;0.23;81.05
56241;BME280;42155;53.096;23.226;2023-01-08T03:06:21;100348.31;;;0.25;80.84
56241;BME280;42155;53.096;23.226;2023-01-08T03:08:22;100329.28;;;0.23;80.83
56241;BME280;42155;53.096;23.226;2023-01-08T03:10:25;100326.59;;;0.25;80.56
56241;BME280;42155;53.096;23.226;2023-01-08T03:12:46;100319.84;;;0.18;80.57
56241;BME280;42155;53.096;23.226;2023-01-08T03:15:03;100321.47;;;0.22;81.14
56241;BME280;42155;53.096;23.226;2023-01-08T03:17:35;100326.69;;;0.22;81.07
56241;BME280;42155;53.096;23.226;2023-01-08T03:19:46;100307.81;;;0.14;81.07
56241;BME280;42155;53.096;23.226;2023-01-08T03:21:49;100323.16;;;0.23;80.46
56241;BME280;42155;53.096;23.226;2023-01-08T03:23:51;100318.91;;;0.20;80.61
56241;BME280;42155;53.096;23.226;2023-01-08T03:25:51;100317.94;;;0.23;80.74
56241;BME280;42155;53.096;23.226;2023-01-08T03:28:00;100311.94;;;0.21;80.30
56241;BME280;42155;53.096;23.226;2023-01-08T03:30:03;100299.09;;;0.15;80.79
56241;BME280;42155;53.096;23.226;2023-01-08T03:32:08;100313.53;;;0.25;80.60
56241;BME280;42155;53.096;23.226;2023-01-08T03:34:12;100320.38;;;0.29;80.98
56241;BME280;42155;53.096;23.226;2023-01-08T03:36:16;100315.19;;;0.28;80.38
56241;BME280;42155;53.096;23.226;2023-01-08T03:38:23;100305.66;;;0.27;80.98
56241;BME280;42155;53.096;23.226;2023-01-08T03:40:37;100304.88;;;0.24;81.00
56241;BME280;42155;53.096;23.226;2023-01-08T03:42:39;100298.97;;;0.18;80.53
56241;BME280;42155;53.096;23.226;2023-01-08T03:44:39;100293.66;;;0.21;80.83
56241;BME280;42155;53.096;23.226;2023-01-08T03:46:44;100285.97;;;0.16;80.58
56241;BME280;42155;53.096;23.226;2023-01-08T03:48:48;100266.56;;;-0.02;80.57
56241;BME280;42155;53.096;23.226;2023-01-08T03:50:49;100291.16;;;0.18;81.06
56241;BME280;42155;53.096;23.226;2023-01-08T03:52:50;100295.56;;;0.16;80.62
56241;BME280;42155;53.096;23.226;2023-01-08T03:54:50;100281.13;;;0.06;80.57
56241;BME280;42155;53.096;23.226;2023-01-08T03:56:50;100292.06;;;0.17;80.50
56241;BME280;42155;53.096;23.226;2023-01-08T03:58:51;100293.81;;;0.16;81.05
56241;BME280;42155;53.096;23.226;2023-01-08T04:00:51;100279.44;;;0.03;80.76
56241;BME280;42155;53.096;23.226;2023-01-08T04:02:51;100296.38;;;0.18;80.95
56241;BME280;42155;53.096;23.226;2023-01-08T04:04:52;100284.38;;;0.12;80.70
56241;BME280;42155;53.096;23.226;2023-01-08T04:06:52;100293.88;;;0.15;80.48
56241;BME280;42155;53.096;23.226;2023-01-08T04:08:52;100283.53;;;0.12;81.09
56241;BME280;42155;53.096;23.226;2023-01-08T04:10:53;100282.88;;;0.05;80.69
56241;BME280;42155;53.096;23.226;2023-01-08T04:12:53;100295.56;;;0.16;80.62
56241;BME280;42155;53.096;23.226;2023-01-08T04:14:53;100270.72;;;0.04;80.79
56241;BME280;42155;53.096;23.226;2023-01-08T04:16:53;100278.53;;;0.04;80.45
56241;BME280;42155;53.096;23.226;2023-01-08T04:18:54;100247.81;;;-0.14;80.81
56241;BME280;42155;53.096;23.226;2023-01-08T04:20:54;100287.81;;;0.14;80.49
56241;BME280;42155;53.096;23.226;2023-01-08T04:22:55;100301.59;;;0.18;80.48
56241;BME280;42155;53.096;23.226;2023-01-08T04:24:55;100292.13;;;0.14;80.69
56241;BME280;42155;53.096;23.226;2023-01-08T04:26:55;100290.34;;;0.16;80.59
56241;BME280;42155;53.096;23.226;2023-01-08T04:28:56;100289.38;;;0.18;81.04
56241;BME280;42155;53.096;23.226;2023-01-08T04:30:56;100290.25;;;0.19;80.66
56241;BME280;42155;53.096;23.226;2023-01-08T04:32:56;100285.06;;;0.17;80.31
56241;BME280;42155;53.096;23.226;2023-01-08T04:34:57;100296.13;;;0.25;80.92
56241;BME280;42155;53.096;23.226;2023-01-08T04:36:57;100298.66;;;0.27;80.40
56241;BME280;42155;53.096;23.226;2023-01-08T04:38:58;100302.94;;;0.30;80.69
56241;BME280;42155;53.096;23.226;2023-01-08T04:40:59;100296.97;;;0.26;80.56
56241;BME280;42155;53.096;23.226;2023-01-08T04:43:00;100298.66;;;0.27;80.67
56241;BME280;42155;53.096;23.226;2023-01-08T04:45:00;100303.00;;;0.28;80.82
56241;BME280;42155;53.096;23.226;2023-01-08T04:47:00;100291.75;;;0.26;80.93
56241;BME280;42155;53.096;23.226;2023-01-08T04:49:01;100298.66;;;0.27;80.16
56241;BME280;42155;53.096;23.226;2023-01-08T04:51:03;100296.97;;;0.26;80.24
56241;BME280;42155;53.096;23.226;2023-01-08T04:53:03;100283.94;;;0.26;80.32
56241;BME280;42155;53.096;23.226;2023-01-08T04:55:04;100251.72;;;0.01;80.16
56241;BME280;42155;53.096;23.226;2023-01-08T04:57:04;100276.41;;;0.17;80.76
56241;BME280;42155;53.096;23.226;2023-01-08T04:59:05;100294.31;;;0.28;80.25
56241;BME280;42155;53.096;23.226;2023-01-08T05:01:19;100289.97;;;0.28;80.79
56241;BME280;42155;53.096;23.226;2023-01-08T05:03:20;100290.81;;;0.29;80.16
56241;BME280;42155;53.096;23.226;2023-01-08T05:05:20;100288.28;;;0.25;80.36
56241;BME280;42155;53.096;23.226;2023-01-08T05:07:21;100298.66;;;0.29;80.70
56241;BME280;42155;53.096;23.226;2023-01-08T05:09:21;100267.06;;;0.10;80.60
56241;BME280;42155;53.096;23.226;2023-01-08T05:11:22;100245.69;;;-0.02;80.28
56241;BME280;42155;53.096;23.226;2023-01-08T05:13:22;100312.44;;;0.32;80.41
56241;BME280;42155;53.096;23.226;2023-01-08T05:15:23;100305.41;;;0.34;80.71
56241;BME280;42155;53.096;23.226;2023-01-08T05:17:23;100298.50;;;0.33;80.05
56241;BME280;42155;53.096;23.226;2023-01-08T05:19:23;100306.25;;;0.35;79.99
56241;BME280;42155;53.096;23.226;2023-01-08T05:21:24;100314.03;;;0.36;80.07
56241;BME280;42155;53.096;23.226;2023-01-08T05:23:24;100298.44;;;0.35;80.30
56241;BME280;42155;53.096;23.226;2023-01-08T05:25:24;100281.97;;;0.33;79.93
56241;BME280;42155;53.096;23.226;2023-01-08T05:27:27;100302.50;;;0.43;80.15
56241;BME280;42155;53.096;23.226;2023-01-08T05:29:27;100290.34;;;0.42;80.80
56241;BME280;42155;53.096;23.226;2023-01-08T05:31:28;100292.97;;;0.42;80.06
56241;BME280;42155;53.096;23.226;2023-01-08T05:33:29;100300.94;;;0.38;80.13
56241;BME280;42155;53.096;23.226;2023-01-08T05:35:29;100305.19;;;0.40;80.28
56241;BME280;42155;53.096;23.226;2023-01-08T05:37:29;100290.38;;;0.41;80.46
56241;BME280;42155;53.096;23.226;2023-01-08T05:39:30;100277.50;;;0.36;80.37
56241;BME280;42155;53.096;23.226;2023-01-08T05:41:30;100236.22;;;-0.04;80.16
56241;BME280;42155;53.096;23.226;2023-01-08T05:43:31;100285.00;;;0.45;79.98
56241;BME280;42155;53.096;23.226;2023-01-08T05:45:31;100291.16;;;0.44;80.13
56241;BME280;42155;53.096;23.226;2023-01-08T05:47:33;100297.19;;;0.46;80.51
56241;BME280;42155;53.096;23.226;2023-01-08T05:49:33;100286.94;;;0.40;80.07
56241;BME280;42155;53.096;23.226;2023-01-08T05:51:34;100309.34;;;0.46;80.48
56241;BME280;42155;53.096;23.226;2023-01-08T05:53:34;100270.66;;;0.32;79.94
56241;BME280;42155;53.096;23.226;2023-01-08T05:55:34;100294.44;;;0.49;79.83
56241;BME280;42155;53.096;23.226;2023-01-08T05:57:35;100298.81;;;0.49;79.99
56241;BME280;42155;53.096;23.226;2023-01-08T05:59:35;100285.22;;;0.39;79.72
56241;BME280;42155;53.096;23.226;2023-01-08T06:01:35;100304.81;;;0.53;79.71
56241;BME280;42155;53.096;23.226;2023-01-08T06:03:36;100298.66;;;0.54;79.69
56241;BME280;42155;53.096;23.226;2023-01-08T06:05:36;100297.88;;;0.52;79.85
56241;BME280;42155;53.096;23.226;2023-01-08T06:07:37;100302.13;;;0.54;79.90
56241;BME280;42155;53.096;23.226;2023-01-08T06:09:37;100261.19;;;0.30;80.29
56241;BME280;42155;53.096;23.226;2023-01-08T06:11:37;100284.00;;;0.49;80.12
56241;BME280;42155;53.096;23.226;2023-01-08T06:13:41;100296.00;;;0.55;80.06
56241;BME280;42155;53.096;23.226;2023-01-08T06:15:42;100294.25;;;0.56;79.86
56241;BME280;42155;53.096;23.226;2023-01-08T06:17:42;100289.13;;;0.53;80.40
56241;BME280;42155;53.096;23.226;2023-01-08T06:19:42;100284.91;;;0.48;80.32
56241;BME280;42155;53.096;23.226;2023-01-08T06:21:43;100293.53;;;0.50;80.31
56241;BME280;42155;53.096;23.226;2023-01-08T06:23:43;100290.13;;;0.48;79.96
56241;BME280;42155;53.096;23.226;2023-01-08T06:25:44;100279.78;;;0.45;79.88
56241;BME280;42155;53.096;23.226;2023-01-08T06:27:46;100247.97;;;0.34;79.84
56241;BME280;42155;53.096;23.226;2023-01-08T06:29:49;100283.81;;;0.56;79.94
56241;BME280;42155;53.096;23.226;2023-01-08T06:31:49;100288.91;;;0.59;79.63
56241;BME280;42155;53.096;23.226;2023-01-08T06:33:49;100288.91;;;0.59;79.87
56241;BME280;42155;53.096;23.226;2023-01-08T06:35:50;100249.75;;;0.34;80.13
56241;BME280;42155;53.096;23.226;2023-01-08T06:37:50;100267.50;;;0.49;79.92
56241;BME280;42155;53.096;23.226;2023-01-08T06:39:50;100290.53;;;0.63;80.11
56241;BME280;42155;53.096;23.226;2023-01-08T06:41:51;100278.63;;;0.54;79.80
56241;BME280;42155;53.096;23.226;2023-01-08T06:43:51;100287.97;;;0.61;79.41
56241;BME280;42155;53.096;23.226;2023-01-08T06:45:53;100297.44;;;0.64;79.72
56241;BME280;42155;53.096;23.226;2023-01-08T06:47:53;100268.41;;;0.48;79.73
56241;BME280;42155;53.096;23.226;2023-01-08T06:49:53;100290.44;;;0.66;79.95
56241;BME280;42155;53.096;23.226;2023-01-08T06:51:54;100284.38;;;0.64;79.63
56241;BME280;42155;53.096;23.226;2023-01-08T06:53:54;100281.06;;;0.59;79.45
56241;BME280;42155;53.096;23.226;2023-01-08T06:55:54;100289.59;;;0.64;79.39
56241;BME280;42155;53.096;23.226;2023-01-08T06:57:56;100284.44;;;0.62;79.86
56241;BME280;42155;53.096;23.226;2023-01-08T06:59:56;100275.84;;;0.59;80.01
56241;BME280;42155;53.096;23.226;2023-01-08T07:01:57;100259.41;;;0.57;79.73
56241;BME280;42155;53.096;23.226;2023-01-08T07:03:57;100281.44;;;0.73;79.84
56241;BME280;42155;53.096;23.226;2023-01-08T07:06:00;100286.69;;;0.73;79.25
56241;BME280;42155;53.096;23.226;2023-01-08T07:08:01;100267.19;;;0.58;79.63
56241;BME280;42155;53.096;23.226;2023-01-08T07:10:01;100285.81;;;0.72;79.34
56241;BME280;42155;53.096;23.226;2023-01-08T07:12:01;100288.44;;;0.72;79.42
56241;BME280;42155;53.096;23.226;2023-01-08T07:14:02;100293.50;;;0.77;79.54
56241;BME280;42155;53.096;23.226;2023-01-08T07:16:09;100287.44;;;0.76;79.48
56241;BME280;42155;53.096;23.226;2023-01-08T07:18:10;100270.44;;;0.65;78.89
56241;BME280;42155;53.096;23.226;2023-01-08T07:20:11;100276.28;;;0.71;79.16
56241;BME280;42155;53.096;23.226;2023-01-08T07:22:11;100293.44;;;0.79;79.08
56241;BME280;42155;53.096;23.226;2023-01-08T07:24:12;100286.47;;;0.79;79.15
56241;BME280;42155;53.096;23.226;2023-01-08T07:26:12;100293.28;;;0.83;78.78
56241;BME280;42155;53.096;23.226;2023-01-08T07:28:12;100267.59;;;0.71;78.45
56241;BME280;42155;53.096;23.226;2023-01-08T07:30:13;100288.78;;;0.88;78.92
56241;BME280;42155;53.096;23.226;2023-01-08T07:32:13;100292.97;;;0.92;78.44
56241;BME280;42155;53.096;23.226;2023-01-08T07:34:13;100296.38;;;0.94;79.00
56241;BME280;42155;53.096;23.226;2023-01-08T07:36:14;100298.09;;;0.95;78.36
56241;BME280;42155;53.096;23.226;2023-01-08T07:38:14;100269.03;;;0.80;78.49
56241;BME280;42155;53.096;23.226;2023-01-08T07:40:14;100300.63;;;0.97;78.50
56241;BME280;42155;53.096;23.226;2023-01-08T07:42:15;100296.28;;;0.97;78.45
56241;BME280;42155;53.096;23.226;2023-01-08T07:44:15;100291.94;;;0.96;78.66
56241;BME280;42155;53.096;23.226;2023-01-08T07:46:15;100297.06;;;0.99;77.97
56241;BME280;42155;53.096;23.226;2023-01-08T07:48:16;100280.47;;;1.00;78.63
56241;BME280;42155;53.096;23.226;2023-01-08T07:50:16;100241.91;;;0.84;78.53
56241;BME280;42155;53.096;23.226;2023-01-08T07:52:16;100272.63;;;1.00;77.83
56241;BME280;42155;53.096;23.226;2023-01-08T07:54:17;100256.16;;;0.98;78.08
56241;BME280;42155;53.096;23.226;2023-01-08T07:56:17;100268.31;;;0.99;78.01
56241;BME280;42155;53.096;23.226;2023-01-08T07:58:17;100268.16;;;1.04;77.88
56241;BME280;42155;53.096;23.226;2023-01-08T08:00:18;100259.56;;;1.00;77.39
56241;BME280;42155;53.096;23.226;2023-01-08T08:02:18;100261.16;;;1.05;77.52
56241;BME280;42155;53.096;23.226;2023-01-08T08:04:19;100253.44;;;1.01;77.73
56241;BME280;42155;53.096;23.226;2023-01-08T08:06:19;100170.63;;;0.57;77.18
56241;BME280;42155;53.096;23.226;2023-01-08T08:08:19;100245.59;;;1.01;77.75
56241;BME280;42155;53.096;23.226;2023-01-08T08:10:20;100242.94;;;1.03;77.13
56241;BME280;42155;53.096;23.226;2023-01-08T08:12:20;100235.03;;;1.05;76.85
56241;BME280;42155;53.096;23.226;2023-01-08T08:14:20;100246.84;;;1.15;77.36
56241;BME280;42155;53.096;23.226;2023-01-08T08:16:21;100241.41;;;1.21;77.02
56241;BME280;42155;53.096;23.226;2023-01-08T08:18:21;100226.06;;;1.12;76.76
56241;BME280;42155;53.096;23.226;2023-01-08T08:20:21;100245.31;;;1.33;76.08
56241;BME280;42155;53.096;23.226;2023-01-08T08:22:22;100244.22;;;1.38;76.32
56241;BME280;42155;53.096;23.226;2023-01-08T08:24:22;100234.50;;;1.42;76.32
56241;BME280;42155;53.096;23.226;2023-01-08T08:26:23;100230.59;;;1.52;75.37
56241;BME280;42155;53.096;23.226;2023-01-08T08:28:23;100225.16;;;1.58;75.63
56241;BME280;42155;53.096;23.226;2023-01-08T08:30:24;100223.31;;;1.60;74.86
56241;BME280;42155;53.096;23.226;2023-01-08T08:32:24;100214.50;;;1.63;74.93
56241;BME280;42155;53.096;23.226;2023-01-08T08:34:25;100211.75;;;1.66;74.81
56241;BME280;42155;53.096;23.226;2023-01-08T08:36:29;100189.44;;;1.57;75.05
56241;BME280;42155;53.096;23.226;2023-01-08T08:38:29;100203.31;;;1.81;74.13
56241;BME280;42155;53.096;23.226;2023-01-08T08:40:30;100198.75;;;1.86;73.96
56241;BME280;42155;53.096;23.226;2023-01-08T08:42:30;100191.66;;;1.88;73.89
56241;BME280;42155;53.096;23.226;2023-01-08T08:44:31;100179.22;;;1.93;73.57
56241;BME280;42155;53.096;23.226;2023-01-08T08:46:31;100183.59;;;1.94;73.99
56241;BME280;42155;53.096;23.226;2023-01-08T08:48:31;100181.81;;;1.95;73.93
56241;BME280;42155;53.096;23.226;2023-01-08T08:50:32;100174.19;;;1.89;73.45
56241;BME280;42155;53.096;23.226;2023-01-08T08:52:33;100179.19;;;1.95;73.62
56241;BME280;42155;53.096;23.226;2023-01-08T08:54:33;100165.25;;;1.94;73.23
56241;BME280;42155;53.096;23.226;2023-01-08T08:56:33;100160.88;;;1.95;72.99
56241;BME280;42155;53.096;23.226;2023-01-08T08:58:34;100183.19;;;2.03;72.62
56241;BME280;42155;53.096;23.226;2023-01-08T09:00:34;100176.88;;;2.08;72.53
56241;BME280;42155;53.096;23.226;2023-01-08T09:02:34;100177.63;;;2.11;72.83
56241;BME280;42155;53.096;23.226;2023-01-08T09:04:35;100174.88;;;2.14;72.41
56241;BME280;42155;53.096;23.226;2023-01-08T09:06:35;100173.00;;;2.18;72.13
56241;BME280;42155;53.096;23.226;2023-01-08T09:08:35;100164.50;;;2.13;72.07
56241;BME280;42155;53.096;23.226;2023-01-08T09:10:37;100172.84;;;2.21;71.71
56241;BME280;42155;53.096;23.226;2023-01-08T09:12:37;100160.22;;;2.10;71.79
56241;BME280;42155;53.096;23.226;2023-01-08T09:14:38;100173.00;;;2.18;71.84
56241;BME280;42155;53.096;23.226;2023-01-08T09:16:38;100165.19;;;2.16;71.68
56241;BME280;42155;53.096;23.226;2023-01-08T09:18:38;100169.34;;;2.22;71.62
56241;BME280;42155;53.096;23.226;2023-01-08T09:20:39;100155.31;;;2.23;71.96
56241;BME280;42155;53.096;23.226;2023-01-08T09:22:39;100149.81;;;2.29;71.79
56241;BME280;42155;53.096;23.226;2023-01-08T09:24:39;100147.19;;;2.29;71.73
56241;BME280;42155;53.096;23.226;2023-01-08T09:26:40;100155.25;;;2.24;71.67
56241;BME280;42155;53.096;23.226;2023-01-08T09:28:40;100139.28;;;2.10;71.46
56241;BME280;42155;53.096;23.226;2023-01-08T09:30:40;100143.38;;;2.16;71.09
56241;BME280;42155;53.096;23.226;2023-01-08T09:32:40;100108.72;;;2.11;71.65
56241;BME280;42155;53.096;23.226;2023-01-08T09:34:41;100118.00;;;2.18;71.20
56241;BME280;42155;53.096;23.226;2023-01-08T09:36:41;100130.44;;;2.33;70.75
56241;BME280;42155;53.096;23.226;2023-01-08T09:38:42;100096.53;;;2.10;70.86
56241;BME280;42155;53.096;23.226;2023-01-08T09:40:57;100108.03;;;2.26;70.82
56241;BME280;42155;53.096;23.226;2023-01-08T09:43:00;100131.72;;;2.43;70.28
56241;BME280;42155;53.096;23.226;2023-01-08T09:45:20;100121.34;;;2.40;70.24
56241;BME280;42155;53.096;23.226;2023-01-08T09:47:28;100122.69;;;2.50;70.19
56241;BME280;42155;53.096;23.226;2023-01-08T09:49:39;100127.63;;;2.57;70.57
56241;BME280;42155;53.096;23.226;2023-01-08T09:51:41;100121.63;;;2.54;70.18
56241;BME280;42155;53.096;23.226;2023-01-08T09:53:42;100129.06;;;2.64;69.91
56241;BME280;42155;53.096;23.226;2023-01-08T09:55:46;100118.44;;;2.67;69.25
56241;BME280;42155;53.096;23.226;2023-01-08T09:57:48;100114.25;;;2.63;69.78
56241;BME280;42155;53.096;23.226;2023-01-08T09:59:48;100111.41;;;2.67;69.48
56241;BME280;42155;53.096;23.226;2023-01-08T10:01:50;100114.63;;;2.74;69.46
56241;BME280;42155;53.096;23.226;2023-01-08T10:04:13;100111.09;;;2.75;68.61
56241;BME280;42155;53.096;23.226;2023-01-08T10:06:15;100108.38;;;2.76;69.09
56241;BME280;42155;53.096;23.226;2023-01-08T10:08:15;100108.25;;;2.79;69.01
56241;BME280;42155;53.096;23.226;2023-01-08T10:10:19;100094.94;;;2.84;68.61
56241;BME280;42155;53.096;23.226;2023-01-08T10:12:31;100096.41;;;2.90;68.47
56241;BME280;42155;53.096;23.226;2023-01-08T10:14:34;100092.94;;;2.89;68.26
56241;BME280;42155;53.096;23.226;2023-01-08T10:16:35;100098.31;;;2.86;68.23
56241;BME280;42155;53.096;23.226;2023-01-08T10:18:37;100101.88;;;2.85;68.19
56241;BME280;42155;53.096;23.226;2023-01-08T10:20:37;100102.16;;;2.79;68.32
56241;BME280;42155;53.096;23.226;2023-01-08T10:22:38;100078.06;;;2.71;68.92
56241;BME280;42155;53.096;23.226;2023-01-08T10:24:39;100097.00;;;2.77;68.01
56241;BME280;42155;53.096;23.226;2023-01-08T10:26:39;100104.16;;;2.74;68.46
56241;BME280;42155;53.096;23.226;2023-01-08T10:28:39;100068.16;;;2.59;68.57
56241;BME280;42155;53.096;23.226;2023-01-08T10:30:40;100080.34;;;2.60;68.74
56241;BME280;42155;53.096;23.226;2023-01-08T10:32:52;100089.56;;;2.68;68.96
56241;BME280;42155;53.096;23.226;2023-01-08T10:34:56;100091.25;;;2.69;68.93
56241;BME280;42155;53.096;23.226;2023-01-08T10:36:57;100083.59;;;2.65;68.85
56241;BME280;42155;53.096;23.226;2023-01-08T10:38:59;100080.19;;;2.63;68.47
56241;BME280;42155;53.096;23.226;2023-01-08T10:41:02;100061.84;;;2.63;68.54
56241;BME280;42155;53.096;23.226;2023-01-08T10:43:28;100069.72;;;2.63;69.25
56241;BME280;42155;53.096;23.226;2023-01-08T10:45:30;100071.06;;;2.52;68.85
56241;BME280;42155;53.096;23.226;2023-01-08T10:47:32;100080.91;;;2.66;69.12
56241;BME280;42155;53.096;23.226;2023-01-08T10:49:38;100092.09;;;2.70;68.43
56241;BME280;42155;53.096;23.226;2023-01-08T10:51:48;100071.56;;;2.61;68.58